Time;durP1;ratioP1;P1;durP2;ratioP2;P2;SDS_P1;SDS_P2;PMS_P1;PMS_P2;Temp;Humidity;BMP_temperature;BMP_pressure;BME280_temperature;BME280_humidity;BME280_pressure;Samples;Min_cycle;Max_cycle;Signal;HPM_P1;HPM_P2
2020/12/23 00:00:10;;;;;;;2.47;1.70;;;;;;;10.81;95.59;100111.50;5077559;28;20425;-74
2020/12/23 00:02:37;;;;;;;3.47;2.10;;;;;;;10.81;95.68;100121.31;5076257;28;20135;-74
2020/12/23 00:05:09;;;;;;;4.40;2.00;;;;;;;10.89;95.06;100127.03;5077644;28;20048;-74
2020/12/23 00:07:36;;;;;;;4.93;1.95;;;;;;;10.78;95.35;100110.84;5076285;28;20098;-74
2020/12/23 00:10:04;;;;;;;2.80;1.67;;;;;;;10.79;94.80;100115.22;5077830;28;20106;-74
2020/12/23 00:12:31;;;;;;;3.80;1.98;;;;;;;10.85;94.81;100122.84;5077450;28;20080;-74
2020/12/23 00:14:57;;;;;;;3.70;1.98;;;;;;;10.82;95.33;100120.34;5077484;28;20346;-74
2020/12/23 00:17:23;;;;;;;2.80;2.00;;;;;;;10.80;95.17;100106.25;5077132;28;20513;-74
2020/12/23 00:19:49;;;;;;;5.45;2.35;;;;;;;10.83;94.96;100095.38;5076296;28;20137;-74
2020/12/23 00:22:16;;;;;;;3.60;2.10;;;;;;;10.82;95.40;100093.66;5077166;28;20048;-73
2020/12/23 00:24:43;;;;;;;4.72;2.28;;;;;;;10.80;94.99;100096.44;5077414;28;20052;-74
2020/12/23 00:27:10;;;;;;;2.53;1.85;;;;;;;10.82;95.17;100093.66;5077103;28;20052;-73
2020/12/23 00:29:37;;;;;;;4.32;2.08;;;;;;;10.76;95.82;100084.25;5076002;28;20135;-74
2020/12/23 00:32:04;;;;;;;5.70;2.22;;;;;;;10.83;94.97;100079.34;5076997;28;20051;-74
2020/12/23 00:34:31;;;;;;;4.60;2.03;;;;;;;10.78;95.12;100079.66;5077192;28;20102;-73
2020/12/23 00:37:00;;;;;;;5.57;2.13;;;;;;;10.77;95.16;100071.72;5077226;28;20098;-74
2020/12/23 00:39:26;;;;;;;8.40;2.80;;;;;;;10.85;94.65;100088.97;5077098;28;20105;-74
2020/12/23 00:41:52;;;;;;;3.20;2.20;;;;;;;10.81;95.04;100086.59;5076956;28;20103;-74
2020/12/23 00:44:18;;;;;;;4.22;2.33;;;;;;;10.82;94.90;100085.66;5075728;28;20110;-73
2020/12/23 00:46:45;;;;;;;7.45;2.80;;;;;;;10.78;95.09;100082.31;5076790;28;20461;-74
2020/12/23 00:49:12;;;;;;;5.00;2.70;;;;;;;10.79;95.16;100081.34;5075434;28;20053;-74
2020/12/23 00:51:38;;;;;;;4.32;2.72;;;;;;;10.79;95.27;100069.84;5075737;28;20063;-74
2020/12/23 00:54:04;;;;;;;4.45;2.55;;;;;;;10.85;95.38;100074.78;5076544;28;20052;-74
2020/12/23 00:56:31;;;;;;;5.28;3.30;;;;;;;10.75;95.63;100063.84;5076818;28;20167;-74
2020/12/23 00:58:57;;;;;;;6.82;3.30;;;;;;;10.79;95.39;100060.00;5076543;28;20495;-74
2020/12/23 01:01:23;;;;;;;7.13;4.13;;;;;;;10.76;95.53;100057.53;5076761;28;20052;-74
2020/12/23 01:03:49;;;;;;;6.68;3.78;;;;;;;10.80;95.28;100052.88;5076338;28;20392;-74
2020/12/23 01:06:15;;;;;;;4.50;3.30;;;;;;;10.71;95.74;100055.16;5076752;28;20106;-73
2020/12/23 01:08:43;;;;;;;5.35;3.47;;;;;;;10.77;95.44;100055.72;5076497;28;20064;-74
2020/12/23 01:11:11;;;;;;;5.10;3.17;;;;;;;10.81;95.13;100060.78;5075358;28;20079;-73
2020/12/23 01:13:38;;;;;;;6.97;3.35;;;;;;;10.75;95.41;100047.81;5076317;28;20064;-74
2020/12/23 01:16:05;;;;;;;5.65;3.08;;;;;;;10.75;95.64;100049.63;5076230;28;20490;-74
2020/12/23 01:18:31;;;;;;;5.50;3.00;;;;;;;10.77;95.25;100047.69;5075879;28;20053;-74
2020/12/23 01:20:58;;;;;;;8.45;2.83;;;;;;;10.75;95.90;100036.28;5076132;28;20048;-74
2020/12/23 01:23:24;;;;;;;6.32;2.67;;;;;;;10.72;95.49;100040.00;5075874;28;20457;-74
2020/12/23 01:25:51;;;;;;;4.45;3.00;;;;;;;10.78;95.36;100046.78;5076322;28;20064;-74
2020/12/23 01:28:18;;;;;;;9.85;2.65;;;;;;;10.78;95.42;100044.09;5075971;28;20060;-74
2020/12/23 01:30:44;;;;;;;4.07;2.25;;;;;;;10.72;95.39;100056.88;5075927;28;20059;-74
2020/12/23 01:33:10;;;;;;;4.75;2.40;;;;;;;10.74;95.55;100056.78;5076114;28;20048;-74
2020/12/23 01:35:37;;;;;;;3.90;2.05;;;;;;;10.77;94.98;100058.38;5075638;28;20358;-74
2020/12/23 01:38:04;;;;;;;7.00;2.13;;;;;;;10.77;95.06;100051.25;5075960;28;20142;-74
2020/12/23 01:40:30;;;;;;;8.10;2.22;;;;;;;10.71;95.04;100052.50;5075825;28;20049;-74
2020/12/23 01:42:56;;;;;;;2.67;1.70;;;;;;;10.72;95.08;100059.56;5075794;28;20426;-74
2020/12/23 01:45:22;;;;;;;2.25;1.85;;;;;;;10.69;95.55;100051.72;5075226;28;20052;-74
2020/12/23 01:47:48;;;;;;;4.05;1.75;;;;;;;10.67;95.99;100052.81;5076057;28;20048;-73
2020/12/23 01:50:15;;;;;;;3.35;2.17;;;;;;;10.59;95.75;100048.78;5075593;28;20056;-74
2020/12/23 01:52:43;;;;;;;3.60;2.28;;;;;;;10.70;95.09;100052.59;5075514;28;20048;-74
2020/12/23 01:55:11;;;;;;;4.47;2.10;;;;;;;10.75;95.17;100049.63;5075423;28;20434;-73
2020/12/23 01:57:38;;;;;;;3.90;2.13;;;;;;;10.54;95.17;100021.53;5075575;28;20392;-74
2020/12/23 02:00:06;;;;;;;4.43;2.45;;;;;;;10.68;95.33;100043.84;5075123;28;20082;-74
2020/12/23 02:02:35;;;;;;;2.90;2.03;;;;;;;10.62;95.43;100042.38;5075312;28;20040;-74
2020/12/23 02:05:07;;;;;;;5.30;2.20;;;;;;;10.64;95.47;100052.97;5075588;28;20049;-74
2020/12/23 02:07:34;;;;;;;4.45;2.28;;;;;;;10.63;95.37;100046.78;5075594;28;20105;-74
2020/12/23 02:10:04;;;;;;;4.15;2.50;;;;;;;10.61;95.65;100032.66;5075430;28;20060;-74
2020/12/23 02:12:30;;;;;;;3.38;2.22;;;;;;;10.60;95.67;100030.97;5075425;28;20377;-74
2020/12/23 02:15:09;;;;;;;3.92;2.70;;;;;;;10.50;95.71;100013.84;5074274;28;20048;-74
2020/12/23 02:17:36;;;;;;;4.88;2.25;;;;;;;10.53;96.25;100022.50;5075292;28;20049;-74
2020/12/23 02:20:08;;;;;;;4.90;2.47;;;;;;;10.64;95.88;100023.63;5075154;28;20052;-74
2020/12/23 02:22:34;;;;;;;3.05;2.50;;;;;;;10.57;95.97;100025.84;5074918;28;20097;-74
2020/12/23 02:25:01;;;;;;;3.22;2.60;;;;;;;10.56;96.03;100018.75;5075062;28;20052;-74
2020/12/23 02:27:27;;;;;;;3.35;2.70;;;;;;;10.56;96.19;100021.41;5075012;28;20431;-73
2020/12/23 02:29:56;;;;;;;2.80;2.50;;;;;;;10.60;95.97;100025.63;5075250;28;20347;-71
2020/12/23 02:32:23;;;;;;;5.60;3.03;;;;;;;10.58;95.62;100016.88;5075173;28;20055;-74
2020/12/23 02:34:50;;;;;;;3.22;2.90;;;;;;;10.68;95.41;100026.00;5074965;28;20065;-73
2020/12/23 02:37:17;;;;;;;6.53;3.17;;;;;;;10.65;95.93;100039.53;5074728;28;20056;-74
2020/12/23 02:39:47;;;;;;;4.28;3.17;;;;;;;10.65;96.37;100039.53;5074954;28;20109;-74
2020/12/23 02:42:14;;;;;;;5.20;3.00;;;;;;;10.64;97.10;100037.84;5075158;28;20048;-73
2020/12/23 02:44:41;;;;;;;4.18;3.20;;;;;;;10.55;97.55;100023.25;5057159;28;20106;-74
2020/12/23 02:47:12;;;;;;;5.38;3.70;;;;;;;10.57;98.07;100023.16;5075151;28;20117;-73
2020/12/23 02:49:40;;;;;;;9.27;3.65;;;;;;;10.53;98.79;100024.31;5074795;28;20056;-73
2020/12/23 02:52:07;;;;;;;5.13;3.20;;;;;;;10.51;98.31;100015.53;5074913;28;20048;-73
2020/12/23 02:54:34;;;;;;;5.43;4.05;;;;;;;10.54;98.59;100007.31;5074956;28;20114;-74
2020/12/23 02:57:01;;;;;;;3.58;3.28;;;;;;;10.50;98.87;100003.16;5074867;28;20052;-73
2020/12/23 02:59:27;;;;;;;6.65;3.50;;;;;;;10.52;98.90;99995.91;5075053;28;20052;-73
2020/12/23 03:01:53;;;;;;;4.72;3.40;;;;;;;10.58;98.98;99996.34;5074613;28;20055;-73
2020/12/23 03:04:20;;;;;;;5.60;3.03;;;;;;;10.56;98.70;99992.06;5074976;28;20125;-73
2020/12/23 03:06:46;;;;;;;6.30;2.92;;;;;;;10.39;98.68;99961.97;5073495;28;20052;-73
2020/12/23 03:09:13;;;;;;;4.90;2.90;;;;;;;10.53;98.79;99981.59;5074892;28;20118;-73
2020/12/23 03:11:40;;;;;;;5.05;2.97;;;;;;;10.48;99.18;99973.03;5074948;28;20094;-73
2020/12/23 03:14:07;;;;;;;4.45;2.00;;;;;;;10.56;98.93;99982.25;5078848;28;20349;-73
2020/12/23 03:16:33;;;;;;;3.58;1.88;;;;;;;10.51;99.05;99970.19;5078516;28;20052;-73
2020/12/23 03:19:00;;;;;;;4.43;1.52;;;;;;;10.59;99.06;99975.88;5077214;28;20064;-73
2020/12/23 03:21:26;;;;;;;3.50;1.67;;;;;;;10.58;99.10;99963.50;5078587;28;20044;-73
2020/12/23 03:23:52;;;;;;;2.53;1.50;;;;;;;10.55;99.16;99961.00;5078434;28;20319;-73
2020/12/23 03:26:18;;;;;;;2.40;1.45;;;;;;;10.64;99.36;99973.78;5078289;28;20377;-73
2020/12/23 03:28:44;;;;;;;1.52;1.20;;;;;;;10.66;99.32;99966.50;5077237;28;20452;-73
2020/12/23 03:31:11;;;;;;;3.95;0.98;;;;;;;10.72;98.78;99981.28;5076964;28;20055;-73
2020/12/23 03:33:37;;;;;;;1.63;0.98;;;;;;;10.74;98.33;99979.38;5078149;28;20060;-73
2020/12/23 03:36:05;;;;;;;0.70;0.70;;;;;;;10.73;98.50;99983.84;5078117;28;20128;-73
2020/12/23 03:38:31;;;;;;;0.77;0.70;;;;;;;10.64;98.10;99943.53;5078302;28;20181;-73
2020/12/23 03:40:57;;;;;;;0.95;0.68;;;;;;;10.82;98.23;99970.84;5077975;28;20508;-73
2020/12/23 03:43:24;;;;;;;1.00;0.50;;;;;;;10.79;98.27;99961.22;5078271;28;20048;-73
2020/12/23 03:45:50;;;;;;;1.60;0.60;;;;;;;10.88;98.21;99962.44;5077832;28;20438;-73
2020/12/23 03:48:17;;;;;;;0.60;0.40;;;;;;;10.89;97.89;99965.97;5076682;28;20044;-73
2020/12/23 03:50:43;;;;;;;1.48;0.30;;;;;;;10.89;97.98;99952.63;5077737;28;20055;-73
2020/12/23 03:53:10;;;;;;;0.52;0.50;;;;;;;10.84;97.98;99947.59;5077936;28;20052;-73
2020/12/23 03:55:36;;;;;;;0.57;0.38;;;;;;;10.89;97.99;99949.97;5077995;28;20052;-73
2020/12/23 03:58:02;;;;;;;0.52;0.40;;;;;;;10.89;98.03;99953.47;5076641;28;20380;-73
2020/12/23 04:00:28;;;;;;;0.82;0.40;;;;;;;10.91;98.34;99954.25;5076728;28;20055;-73
2020/12/23 04:02:55;;;;;;;1.33;0.40;;;;;;;10.90;98.50;99955.19;5077811;28;20051;-74
2020/12/23 04:05:34;;;;;;;0.38;0.30;;;;;;;10.87;98.37;99942.03;5077822;28;20052;-73
2020/12/23 04:08:00;;;;;;;0.52;0.43;;;;;;;10.89;98.27;99942.78;5077671;28;20056;-73
2020/12/23 04:10:26;;;;;;;0.30;0.30;;;;;;;10.90;98.71;99946.34;5077725;28;20102;-74
2020/12/23 04:12:52;;;;;;;3.50;0.30;;;;;;;10.88;98.74;99941.09;5077429;28;20098;-73
2020/12/23 04:15:18;;;;;;;0.35;0.30;;;;;;;10.91;98.61;99938.22;5077574;28;20105;-73
2020/12/23 04:17:45;;;;;;;1.65;0.20;;;;;;;10.92;98.32;99933.72;5077376;28;20118;-73
2020/12/23 04:20:11;;;;;;;0.38;0.38;;;;;;;10.88;98.48;99925.06;5076469;28;20044;-73
2020/12/23 04:22:37;;;;;;;1.38;0.40;;;;;;;10.94;98.45;99923.78;5077170;28;20044;-73
2020/12/23 04:25:06;;;;;;;1.10;0.40;;;;;;;10.97;97.86;99911.13;5077057;28;20425;-73
2020/12/23 04:27:33;;;;;;;0.55;0.20;;;;;;;10.93;97.50;99898.06;5077372;28;20060;-73
2020/12/23 04:30:00;;;;;;;1.10;0.30;;;;;;;10.90;97.98;99906.28;5077100;28;20052;-73
2020/12/23 04:32:26;;;;;;;1.65;0.55;;;;;;;10.93;98.20;99912.28;5076207;28;20396;-73
2020/12/23 04:34:52;;;;;;;1.52;0.20;;;;;;;10.87;97.66;99885.97;5077395;28;20389;-73
2020/12/23 04:37:18;;;;;;;1.55;0.20;;;;;;;10.94;97.77;99903.28;5076757;28;20049;-73
2020/12/23 04:39:45;;;;;;;0.50;0.28;;;;;;;10.92;97.68;99913.22;5077122;28;20056;-73
2020/12/23 04:42:11;;;;;;;0.70;0.35;;;;;;;10.82;97.49;99888.09;5077150;28;20044;-73
2020/12/23 04:44:38;;;;;;;1.17;0.30;;;;;;;10.90;97.40;99922.31;5076836;28;20097;-73
2020/12/23 04:47:04;;;;;;;1.08;0.73;;;;;;;10.87;97.37;99928.69;5076738;28;20426;-73
2020/12/23 04:49:37;;;;;;;1.38;0.20;;;;;;;10.92;96.84;99933.72;5059105;28;20052;-74
2020/12/23 04:52:07;;;;;;;0.52;0.30;;;;;;;10.90;96.89;99941.81;5076727;28;20044;-73
2020/12/23 04:54:34;;;;;;;1.48;0.30;;;;;;;10.84;97.23;99942.25;5076883;28;20053;-74
2020/12/23 04:57:02;;;;;;;0.70;0.30;;;;;;;10.88;97.23;99937.56;5076618;28;20048;-73
2020/12/23 04:59:29;;;;;;;1.63;0.30;;;;;;;10.89;96.98;99932.09;5076863;28;20049;-73
2020/12/23 05:02:00;;;;;;;0.75;0.22;;;;;;;10.83;97.13;99936.06;5076734;28;20125;-73
2020/12/23 05:04:26;;;;;;;;;;;;;;;10.85;97.35;99944.81;5076855;28;20105;-73
2020/12/23 05:07:04;;;;;;;1.85;0.35;;;;;;;10.84;97.53;99932.41;5076464;28;19924;-73
2020/12/23 05:09:30;;;;;;;0.75;0.30;;;;;;;10.87;97.15;99931.38;5076350;28;20056;-73
2020/12/23 05:11:58;;;;;;;0.85;0.30;;;;;;;10.90;97.04;99924.97;5075448;28;20114;-73
2020/12/23 05:14:25;;;;;;;0.38;0.30;;;;;;;10.86;97.30;99921.66;5076651;28;20048;-73
2020/12/23 05:16:52;;;;;;;1.27;0.40;;;;;;;10.81;97.69;99891.72;5076140;28;20052;-73
2020/12/23 05:19:19;;;;;;;0.80;0.40;;;;;;;10.79;97.66;99896.31;5076129;28;20061;-74
2020/12/23 05:21:45;;;;;;;1.73;0.32;;;;;;;10.81;97.46;99883.72;5076437;28;20102;-73
2020/12/23 05:24:13;;;;;;;0.60;0.30;;;;;;;10.82;97.38;99896.09;5075968;28;20055;-73
2020/12/23 05:26:44;;;;;;;0.70;0.30;;;;;;;10.82;97.00;99898.75;5076105;28;20377;-73
2020/12/23 05:29:11;;;;;;;;;;;;;;;10.82;97.52;99896.97;5075484;28;20053;-74
2020/12/23 05:31:38;;;;;;;1.00;0.30;;;;;;;10.77;96.72;99879.53;5076055;28;19924;-74
2020/12/23 05:34:05;;;;;;;0.35;0.35;;;;;;;10.80;96.94;99882.00;5075669;28;20388;-73
2020/12/23 05:36:38;;;;;;;1.55;0.20;;;;;;;10.80;96.81;99876.66;5075435;28;20044;-74
2020/12/23 05:39:07;;;;;;;0.55;0.32;;;;;;;10.79;96.96;99870.47;5074644;28;20186;-74
2020/12/23 05:41:35;;;;;;;1.52;0.30;;;;;;;10.80;96.66;99874.88;5075907;28;20053;-74
2020/12/23 05:44:01;;;;;;;1.98;0.60;;;;;;;10.77;96.79;99875.06;5075801;28;20063;-74
2020/12/23 05:46:27;;;;;;;1.38;0.40;;;;;;;10.76;96.84;99868.00;5075623;28;20102;-74
2020/12/23 05:48:54;;;;;;;1.05;0.40;;;;;;;10.72;96.96;99864.69;5074825;28;20060;-74
2020/12/23 05:51:20;;;;;;;1.08;0.30;;;;;;;10.75;96.66;99860.97;5075730;28;20064;-73
2020/12/23 05:53:47;;;;;;;1.25;0.60;;;;;;;10.75;96.71;99863.63;5075475;28;20078;-74
2020/12/23 05:56:13;;;;;;;2.33;0.40;;;;;;;10.50;97.31;99811.88;5074616;28;20048;-74
2020/12/23 05:58:40;;;;;;;4.25;0.70;;;;;;;10.73;96.95;99846.84;5075329;28;20430;-74
2020/12/23 06:01:09;;;;;;;1.60;0.30;;;;;;;10.63;96.94;99830.63;5074968;28;20075;-73
2020/12/23 06:03:38;;;;;;;3.42;0.30;;;;;;;10.73;96.96;99834.38;5075590;28;20059;-74
2020/12/23 06:06:04;;;;;;;1.77;0.50;;;;;;;10.66;97.08;99835.72;5075564;28;20125;-74
2020/12/23 06:08:37;;;;;;;1.05;0.40;;;;;;;10.71;96.59;99830.94;5075315;28;20052;-74
2020/12/23 06:11:31;;;;;;;2.50;0.32;;;;;;;10.66;96.96;99835.72;5075545;28;20048;-74
2020/12/23 06:14:07;;;;;;;2.20;0.57;;;;;;;10.70;96.29;99834.59;5075207;28;20048;-73
2020/12/23 06:16:36;;;;;;;0.60;0.40;;;;;;;10.68;96.73;99833.81;5075210;28;20822;-74
2020/12/23 06:19:07;;;;;;;0.55;0.40;;;;;;;10.67;96.59;99832.09;5074366;28;20114;-74
2020/12/23 06:21:35;;;;;;;0.98;0.57;;;;;;;10.62;96.77;99820.88;5074667;28;20060;-74
2020/12/23 06:24:13;;;;;;;1.88;0.50;;;;;;;10.63;96.41;99835.94;5074068;28;20078;-74
2020/12/23 06:26:41;;;;;;;0.75;0.47;;;;;;;10.66;96.82;99843.75;5073399;28;20064;-73
2020/12/23 06:29:13;;;;;;;0.65;0.32;;;;;;;10.64;96.72;99850.13;5074353;28;20468;-72
2020/12/23 06:31:42;;;;;;;0.32;0.22;;;;;;;10.67;96.13;99861.47;5074197;28;20114;-73
2020/12/23 06:34:17;;;;;;;1.35;0.50;;;;;;;10.72;96.30;99869.16;5074361;28;20186;-74
2020/12/23 06:36:44;;;;;;;2.67;0.30;;;;;;;10.73;95.62;99871.72;5075429;28;20053;-73
2020/12/23 06:39:24;;;;;;;1.70;0.30;;;;;;;10.72;95.93;99869.16;5074953;28;20048;-73
2020/12/23 06:41:53;;;;;;;2.20;0.38;;;;;;;10.70;96.34;99863.94;5075385;28;20056;-74
2020/12/23 06:44:22;;;;;;;1.17;0.35;;;;;;;10.73;95.60;99858.38;5073305;28;20064;-74
2020/12/23 06:47:00;;;;;;;2.13;0.32;;;;;;;10.68;96.03;99862.31;5073230;28;20105;-74
2020/12/23 06:49:42;;;;;;;1.92;0.63;;;;;;;10.66;94.85;99858.88;5073931;28;20057;-74
2020/12/23 06:52:20;;;;;;;1.90;0.30;;;;;;;10.68;95.03;99857.84;5074212;28;20044;-74
2020/12/23 06:55:03;;;;;;;1.35;0.40;;;;;;;10.63;95.12;99864.44;5073959;28;20132;-74
2020/12/23 06:57:35;;;;;;;1.25;0.40;;;;;;;10.61;95.59;99869.88;5073847;28;20402;-74
2020/12/23 07:00:04;;;;;;;1.20;0.43;;;;;;;10.61;94.76;99861.88;5073665;28;20114;-74
2020/12/23 07:02:50;;;;;;;1.20;0.30;;;;;;;10.58;95.22;99859.41;5074131;28;20098;-74
2020/12/23 07:05:22;;;;;;;1.55;0.50;;;;;;;10.55;95.13;99867.59;5073793;28;20059;-74
2020/12/23 07:08:02;;;;;;;1.20;0.30;;;;;;;10.52;95.10;99868.66;5072723;28;20051;-74
2020/12/23 07:10:34;;;;;;;0.60;0.35;;;;;;;10.53;95.09;99869.53;5073846;28;20509;-73
2020/12/23 07:13:02;;;;;;;1.08;0.45;;;;;;;10.50;95.42;99849.22;5073830;28;20049;-74
2020/12/23 07:15:31;;;;;;;0.30;0.30;;;;;;;10.44;95.76;99853.16;5073871;28;20102;-73
2020/12/23 07:18:14;;;;;;;1.17;0.40;;;;;;;10.35;95.80;99834.22;5042998;28;763744;-72
2020/12/23 07:20:41;;;;;;;1.90;0.70;;;;;;;10.38;95.73;99845.53;5072803;28;20082;-74
2020/12/23 07:23:10;;;;;;;6.88;0.85;;;;;;;10.40;95.93;99851.63;5075201;28;20049;-78
2020/12/23 07:25:39;;;;;;;3.72;1.00;;;;;;;10.36;96.27;99847.47;5066223;28;20048;-76
2020/12/23 07:28:08;;;;;;;2.78;0.88;;;;;;;10.36;95.74;99847.47;5065763;28;20456;-75
2020/12/23 07:30:37;;;;;;;1.90;0.63;;;;;;;10.27;95.46;99826.69;5066114;28;20434;-76
2020/12/23 07:33:07;;;;;;;2.13;0.70;;;;;;;10.36;95.38;99841.25;5069669;28;20045;-80
2020/12/23 07:35:34;;;;;;;1.35;0.75;;;;;;;10.35;95.31;99836.88;5072945;28;20052;-75
2020/12/23 07:38:03;;;;;;;1.05;0.68;;;;;;;10.32;96.16;99845.94;5073508;28;20095;-73
2020/12/23 07:40:31;;;;;;;1.42;0.63;;;;;;;10.32;96.06;99843.25;5070766;28;20072;-73
2020/12/23 07:42:57;;;;;;;1.35;0.85;;;;;;;10.29;96.35;99838.97;5073907;28;20048;-74
2020/12/23 07:45:25;;;;;;;0.98;0.60;;;;;;;10.29;95.52;99835.44;5073929;28;20048;-75
2020/12/23 07:48:03;;;;;;;3.08;0.50;;;;;;;10.26;95.48;99831.19;5072869;28;20126;-75
2020/12/23 07:50:33;;;;;;;2.25;0.52;;;;;;;10.27;95.62;99826.69;5070052;28;20378;-73
2020/12/23 07:53:24;;;;;;;3.80;0.70;;;;;;;10.24;95.63;99825.09;5062703;28;20098;-73
2020/12/23 07:55:55;;;;;;;;;;;;;;;10.27;96.07;99824.03;5071951;28;20049;-74
2020/12/23 07:58:22;;;;;;;1.35;0.90;;;;;;;10.22;96.07;99828.81;5075461;28;19924;-75
2020/12/23 08:00:48;;;;;;;0.98;0.57;;;;;;;10.28;96.14;99828.41;5078020;28;20052;-76
2020/12/23 08:03:23;;;;;;;1.30;0.68;;;;;;;10.25;95.32;99837.47;5078098;28;20134;-74
2020/12/23 08:05:49;;;;;;;0.68;0.57;;;;;;;10.26;95.36;99833.84;5077486;28;20056;-76
2020/12/23 08:08:27;;;;;;;2.60;0.85;;;;;;;10.25;96.13;99828.63;5077809;28;20113;-74
2020/12/23 08:10:53;;;;;;;3.17;0.57;;;;;;;10.28;94.88;99839.06;5076925;28;20319;-75
2020/12/23 08:13:28;;;;;;;0.30;0.30;;;;;;;10.34;94.78;99833.34;5077006;28;20290;-74
2020/12/23 08:16:09;;;;;;;3.38;0.50;;;;;;;10.35;94.77;99819.03;5075560;28;20048;-74
2020/12/23 08:18:37;;;;;;;0.57;0.40;;;;;;;10.15;94.63;99783.84;5075048;28;20055;-77
2020/12/23 08:21:07;;;;;;;1.05;0.60;;;;;;;10.39;95.06;99809.88;5073129;28;20397;-73
2020/12/23 08:23:34;;;;;;;1.95;0.70;;;;;;;10.38;95.28;99810.84;5077295;28;20072;-76
2020/12/23 08:26:00;;;;;;;0.50;0.30;;;;;;;10.32;95.40;99804.13;5077062;28;20068;-78
2020/12/23 08:28:28;;;;;;;2.47;0.70;;;;;;;10.39;94.90;99807.22;5072625;28;20461;-74
2020/12/23 08:30:54;;;;;;;2.30;0.70;;;;;;;10.42;94.27;99820.38;5075984;28;20122;-75
2020/12/23 08:33:23;;;;;;;0.77;0.30;;;;;;;10.39;94.68;99811.69;5076131;28;20132;-79
2020/12/23 08:35:58;;;;;;;1.27;0.40;;;;;;;10.31;94.78;99793.53;5076986;28;20140;-79
2020/12/23 08:38:36;;;;;;;2.85;0.60;;;;;;;10.37;94.86;99793.13;5078330;28;20143;-78
2020/12/23 08:41:11;;;;;;;1.63;0.60;;;;;;;10.29;95.02;99776.75;5078532;28;20053;-81
2020/12/23 08:43:43;;;;;;;0.85;0.30;;;;;;;10.41;93.68;99780.44;5076848;28;20045;-78
2020/12/23 08:46:09;;;;;;;1.27;0.43;;;;;;;10.48;94.50;99791.59;5070333;28;20064;-79
2020/12/23 08:48:46;;;;;;;1.20;0.57;;;;;;;10.44;94.79;99790.94;5073891;28;20064;-79
2020/12/23 08:51:19;;;;;;;0.90;0.70;;;;;;;10.41;94.60;99785.78;5066591;28;20088;-78
2020/12/23 08:53:51;;;;;;;0.70;0.68;;;;;;;10.35;93.86;99787.03;5065587;28;20045;-82
2020/12/23 08:56:31;;;;;;;2.90;0.57;;;;;;;10.49;93.68;99811.97;5067410;28;20174;-76
2020/12/23 08:59:05;;;;;;;0.77;0.40;;;;;;;10.54;93.65;99801.84;5071666;28;20056;-71
2020/12/23 09:01:34;;;;;;;0.80;0.50;;;;;;;10.56;93.30;99791.91;5076975;28;20048;-73
2020/12/23 09:04:04;;;;;;;1.00;0.50;;;;;;;10.68;94.33;99793.78;5065078;28;20056;-74
2020/12/23 09:06:32;;;;;;;2.38;0.30;;;;;;;10.68;94.50;99795.59;5056893;28;20060;-73
2020/12/23 09:09:13;;;;;;;1.58;0.50;;;;;;;10.77;92.78;99791.44;5056145;28;20048;-74
2020/12/23 09:11:50;;;;;;;0.60;0.50;;;;;;;10.86;92.53;99788.16;5058482;28;20048;-75
2020/12/23 09:14:27;;;;;;;0.90;0.40;;;;;;;10.85;92.40;99781.09;5059361;28;20106;-79
2020/12/23 09:16:56;;;;;;;1.13;0.50;;;;;;;10.86;93.35;99774.81;5056379;28;20057;-78
2020/12/23 09:19:58;;;;;;;0.90;0.65;;;;;;;10.71;92.99;99758.88;5069067;28;20353;-80
2020/12/23 09:22:28;;;;;;;2.90;0.70;;;;;;;10.88;93.18;99783.56;5077057;28;20044;-75
2020/12/23 09:25:13;;;;;;;1.83;0.52;;;;;;;10.97;93.07;99782.94;5075921;28;20052;-76
2020/12/23 09:27:40;;;;;;;1.48;0.50;;;;;;;11.03;91.76;99776.31;5075706;28;20075;-74
2020/12/23 09:30:07;;;;;;;1.33;0.55;;;;;;;11.06;92.35;99769.91;5076192;28;20056;-74
2020/12/23 09:32:34;;;;;;;1.30;0.55;;;;;;;11.10;91.33;99758.91;5074846;28;20044;-74
2020/12/23 09:35:17;;;;;;;1.30;0.60;;;;;;;11.10;91.85;99763.38;5072839;28;20061;-72
2020/12/23 09:37:48;;;;;;;1.15;0.40;;;;;;;11.09;91.39;99759.88;5060112;28;20049;-75
2020/12/23 09:40:16;;;;;;;4.32;0.55;;;;;;;11.17;92.04;99766.50;5040996;28;20057;-75
2020/12/23 09:42:42;;;;;;;1.02;0.60;;;;;;;11.16;91.81;99765.63;5064066;28;20044;-74
2020/12/23 09:45:09;;;;;;;0.82;0.40;;;;;;;11.18;92.29;99763.72;5066149;28;20048;-73
2020/12/23 09:47:44;;;;;;;0.88;0.40;;;;;;;11.10;92.97;99760.69;5064034;28;20086;-74
2020/12/23 09:50:10;;;;;;;0.88;0.40;;;;;;;11.10;93.49;99764.25;5065252;28;20057;-74
2020/12/23 09:52:37;;;;;;;0.30;0.20;;;;;;;11.00;93.70;99753.34;5064058;28;20047;-76
2020/12/23 09:55:05;;;;;;;1.17;0.50;;;;;;;10.99;94.40;99748.97;5065239;28;20350;-74
2020/12/23 09:57:31;;;;;;;0.73;0.50;;;;;;;11.06;93.34;99751.22;5066065;28;20040;-74
2020/12/23 09:59:57;;;;;;;1.40;0.40;;;;;;;11.01;94.08;99738.19;5066368;28;20056;-74
2020/12/23 10:02:23;;;;;;;0.65;0.30;;;;;;;11.07;92.93;99723.53;5066076;28;20047;-74
2020/12/23 10:04:49;;;;;;;1.17;0.40;;;;;;;11.12;93.00;99729.41;5064604;28;20049;-76
2020/12/23 10:07:18;;;;;;;1.73;0.40;;;;;;;11.12;92.97;99716.06;5065479;28;20101;-74
2020/12/23 10:09:51;;;;;;;0.70;0.30;;;;;;;11.12;92.58;99716.91;5072791;28;20052;-73
2020/12/23 10:12:20;;;;;;;1.67;0.30;;;;;;;10.94;92.96;99687.00;5069322;28;20060;-75
2020/12/23 10:14:46;;;;;;;1.00;0.30;;;;;;;11.13;93.25;99705.25;5074358;28;20048;-74
2020/12/23 10:17:12;;;;;;;1.17;0.60;;;;;;;11.08;93.41;99696.75;5074982;28;20057;-74
2020/12/23 10:19:39;;;;;;;5.07;1.00;;;;;;;11.14;93.11;99708.78;5071793;28;20053;-74
2020/12/23 10:22:05;;;;;;;0.65;0.35;;;;;;;11.16;92.74;99690.81;5063496;28;20049;-75
2020/12/23 10:24:31;;;;;;;2.17;0.40;;;;;;;11.21;93.44;99683.34;5066236;28;20106;-73
2020/12/23 10:26:57;;;;;;;0.60;0.45;;;;;;;11.22;93.34;99687.72;5064536;28;20072;-73
2020/12/23 10:29:23;;;;;;;0.63;0.38;;;;;;;11.12;93.75;99684.03;5064000;28;20045;-74
2020/12/23 10:31:50;;;;;;;0.50;0.32;;;;;;;11.18;93.39;99682.72;5065879;28;20056;-76
2020/12/23 10:34:16;;;;;;;0.65;0.45;;;;;;;11.21;92.98;99677.13;5064415;28;20044;-76
2020/12/23 10:36:45;;;;;;;2.15;0.73;;;;;;;11.22;93.42;99678.88;5064564;28;20051;-75
2020/12/23 10:39:11;;;;;;;3.42;0.35;;;;;;;11.18;94.70;99677.38;5066560;28;20048;-78
2020/12/23 10:41:37;;;;;;;0.30;0.30;;;;;;;11.14;95.36;99668.72;5067232;28;20388;-80
2020/12/23 10:44:03;;;;;;;3.65;0.50;;;;;;;11.14;95.22;99664.25;5064903;28;20060;-74
2020/12/23 10:46:30;;;;;;;0.68;0.50;;;;;;;11.16;95.58;99673.97;5066907;28;20136;-75
2020/12/23 10:48:56;;;;;;;1.40;0.60;;;;;;;11.09;95.81;99661.06;5067269;28;20063;-74
2020/12/23 10:51:22;;;;;;;4.70;0.63;;;;;;;11.14;95.98;99671.41;5057584;28;20045;-74
2020/12/23 10:53:48;;;;;;;2.22;0.60;;;;;;;11.05;96.60;99656.03;5057803;28;20049;-73
2020/12/23 10:56:14;;;;;;;1.42;0.50;;;;;;;11.14;96.25;99668.72;5058459;28;20048;-74
2020/12/23 10:58:40;;;;;;;1.20;0.55;;;;;;;11.22;95.69;99670.84;5075195;28;20102;-75
2020/12/23 11:01:07;;;;;;;0.73;0.30;;;;;;;11.03;95.37;99640.13;5073784;28;20385;-75
2020/12/23 11:03:36;;;;;;;1.60;0.50;;;;;;;11.18;96.05;99659.53;5074871;28;20052;-72
2020/12/23 11:06:03;;;;;;;1.38;0.50;;;;;;;11.17;95.81;99659.66;5070304;28;20118;-73
2020/12/23 11:08:29;;;;;;;0.47;0.38;;;;;;;11.18;95.44;99664.88;5059336;28;20417;-73
2020/12/23 11:10:55;;;;;;;2.75;0.70;;;;;;;11.16;96.23;99650.75;5071989;28;20052;-73
2020/12/23 11:13:22;;;;;;;3.22;0.50;;;;;;;11.13;96.82;99645.66;5074480;28;20048;-72
2020/12/23 11:15:48;;;;;;;2.00;0.40;;;;;;;11.16;96.59;99653.44;5059820;28;20439;-70
2020/12/23 11:18:14;;;;;;;2.85;0.50;;;;;;;11.15;96.76;99646.38;5053068;28;20060;-78
2020/12/23 11:20:40;;;;;;;0.82;0.60;;;;;;;11.16;96.24;99634.75;5056848;28;20496;-73
2020/12/23 11:23:06;;;;;;;2.17;0.30;;;;;;;11.17;96.27;99638.28;5055706;28;20324;-72
2020/12/23 11:25:33;;;;;;;2.38;0.40;;;;;;;11.10;96.22;99637.84;5068970;28;20052;-73
2020/12/23 11:27:59;;;;;;;0.80;0.30;;;;;;;11.14;96.04;99634.00;5056364;28;20315;-74
2020/12/23 11:30:25;;;;;;;3.35;0.60;;;;;;;11.11;96.32;99635.06;5061590;28;20435;-74
2020/12/23 11:32:52;;;;;;;0.65;0.30;;;;;;;11.09;96.20;99641.50;5054743;28;20045;-73
2020/12/23 11:35:18;;;;;;;1.38;0.50;;;;;;;11.05;95.97;99630.16;5060914;28;20060;-73
2020/12/23 11:37:44;;;;;;;2.67;0.45;;;;;;;11.02;97.29;99632.22;5063448;28;20049;-74